Time;durP1;ratioP1;P1;durP2;ratioP2;P2;SDS_P1;SDS_P2;PMS_P1;PMS_P2;Temp;Humidity;BMP_temperature;BMP_pressure;BME280_temperature;BME280_humidity;BME280_pressure;Samples;Min_cycle;Max_cycle;Signal;HPM_P1;HPM_P2
2023/07/09 00:02:13;;;;;;;10.98;5.15;;;;;;;;;;5092851;28;20051;-64
2023/07/09 00:04:39;;;;;;;10.70;5.00;;;;;;;;;;5068892;28;20051;-64
2023/07/09 00:07:09;;;;;;;12.25;5.53;;;;;;;;;;5079866;28;20044;-63
2023/07/09 00:09:38;;;;;;;12.43;4.97;;;;;;;;;;5070483;28;20120;-64
2023/07/09 00:12:06;;;;;;;13.65;5.65;;;;;;;;;;5070680;28;20097;-64
2023/07/09 00:14:32;;;;;;;12.60;4.82;;;;;;;;;;5092911;28;20052;-64
2023/07/09 00:17:00;;;;;;;9.68;4.93;;;;;;;;;;5079782;28;20105;-64
2023/07/09 00:19:29;;;;;;;10.63;5.20;;;;;;;;;;5080294;28;20052;-64
2023/07/09 00:22:01;;;;;;;11.95;5.05;;;;;;;;;;5053780;28;20062;-63
2023/07/09 00:24:29;;;;;;;12.63;5.22;;;;;;;;;;5077530;28;20079;-63
2023/07/09 00:27:00;;;;;;;13.82;5.80;;;;;;;;;;5078288;28;20083;-64
2023/07/09 00:29:27;;;;;;;9.65;4.80;;;;;;;;;;5080497;28;20139;-63
2023/07/09 00:31:54;;;;;;;11.80;5.55;;;;;;;;;;5073309;28;20058;-63
2023/07/09 00:34:21;;;;;;;11.38;4.78;;;;;;;;;;5077324;28;20170;-63
2023/07/09 00:36:50;;;;;;;14.15;5.22;;;;;;;;;;5081014;28;20082;-64
2023/07/09 00:39:17;;;;;;;23.42;12.23;;;;;;;;;;5081563;28;20067;-64
2023/07/09 00:41:46;;;;;;;20.13;10.50;;;;;;;;;;5071396;28;20138;-63
2023/07/09 00:44:25;;;;;;;22.85;7.95;;;;;;;;;;5077674;28;20309;-63
2023/07/09 00:47:19;;;;;;;42.05;21.05;;;;;;;;;;5080017;28;20044;-64
2023/07/09 00:49:47;;;;;;;18.05;8.70;;;;;;;;;;5072567;28;20083;-64
2023/07/09 00:52:24;;;;;;;14.70;5.80;;;;;;;;;;5061812;28;20079;-64
2023/07/09 00:54:51;;;;;;;12.25;5.35;;;;;;;;;;5078454;28;20109;-64
2023/07/09 00:57:22;;;;;;;16.27;5.18;;;;;;;;;;5078034;28;20048;-63
2023/07/09 00:59:52;;;;;;;13.95;5.13;;;;;;;;;;5093278;28;20082;-64
2023/07/09 01:02:22;;;;;;;10.80;5.22;;;;;;;;;;5049901;28;20056;-63
2023/07/09 01:04:50;;;;;;;11.38;5.45;;;;;;;;;;5057270;28;20052;-64
2023/07/09 01:07:19;;;;;;;13.38;5.10;;;;;;;;;;5075985;28;20056;-64
2023/07/09 01:09:46;;;;;;;15.48;5.13;;;;;;;;;;5079748;28;20051;-64
2023/07/09 01:12:16;;;;;;;10.23;5.32;;;;;;;;;;5090294;27;20112;-64
2023/07/09 01:14:43;;;;;;;11.07;5.53;;;;;;;;;;5083990;28;20047;-63
2023/07/09 01:17:12;;;;;;;10.97;5.10;;;;;;;;;;5079841;28;20082;-64
2023/07/09 01:19:43;;;;;;;12.18;5.70;;;;;;;;;;5070474;28;20067;-64
2023/07/09 01:22:12;;;;;;;12.23;5.28;;;;;;;;;;5065371;28;20052;-63
2023/07/09 01:24:51;;;;;;;11.32;4.95;;;;;;;;;;5078085;28;20127;-64
2023/07/09 01:27:20;;;;;;;11.57;5.15;;;;;;;;;;5079113;28;20141;-63
2023/07/09 01:29:48;;;;;;;11.95;5.88;;;;;;;;;;5072363;28;20168;-63
2023/07/09 01:32:17;;;;;;;12.65;5.47;;;;;;;;;;5075516;28;20121;-64
2023/07/09 01:34:44;;;;;;;11.60;5.45;;;;;;;;;;5078057;28;20058;-63
2023/07/09 01:37:12;;;;;;;20.98;12.20;;;;;;;;;;5080008;28;20056;-63
2023/07/09 01:39:40;;;;;;;25.27;11.38;;;;;;;;;;5072248;28;20056;-64
2023/07/09 01:42:08;;;;;;;77.10;44.58;;;;;;;;;;5075660;28;20055;-63
2023/07/09 01:44:35;;;;;;;41.47;22.15;;;;;;;;;;5078424;27;20067;-63
2023/07/09 01:47:03;;;;;;;19.73;9.93;;;;;;;;;;5078476;28;20129;-63
2023/07/09 01:49:32;;;;;;;;;;;;;;;;;;5076424;28;20063;-63
2023/07/09 01:52:00;;;;;;;14.30;5.60;;;;;;;;;;5074884;27;19955;-63
2023/07/09 01:54:29;;;;;;;12.73;5.80;;;;;;;;;;5076805;28;20060;-64
2023/07/09 01:57:14;;;;;;;11.75;5.85;;;;;;;;;;5060974;28;20057;-63
2023/07/09 01:59:41;;;;;;;13.18;6.22;;;;;;;;;;5053024;28;20062;-63
2023/07/09 02:02:08;;;;;;;13.18;5.80;;;;;;;;;;5075580;28;20125;-63
2023/07/09 02:04:34;;;;;;;10.20;5.35;;;;;;;;;;5048243;28;20055;-63
2023/07/09 02:07:01;;;;;;;14.00;5.57;;;;;;;;;;5077704;28;20054;-63
2023/07/09 02:09:29;;;;;;;12.07;5.50;;;;;;;;;;5092309;28;20109;-63
2023/07/09 02:11:56;;;;;;;10.30;5.03;;;;;;;;;;5097419;28;20055;-63
2023/07/09 02:14:22;;;;;;;10.13;5.72;;;;;;;;;;5066981;28;20071;-63
2023/07/09 02:16:50;;;;;;;12.30;5.75;;;;;;;;;;5077859;28;20080;-63
2023/07/09 02:19:16;;;;;;;12.65;5.82;;;;;;;;;;5076579;28;20056;-63
2023/07/09 02:21:43;;;;;;;16.88;6.25;;;;;;;;;;5077870;28;20080;-63
2023/07/09 02:24:10;;;;;;;12.48;5.55;;;;;;;;;;5071429;28;20071;-64
2023/07/09 02:26:38;;;;;;;12.20;5.85;;;;;;;;;;5077392;28;20060;-63
2023/07/09 02:29:04;;;;;;;15.52;5.85;;;;;;;;;;5078255;28;20120;-63
2023/07/09 02:31:33;;;;;;;15.45;5.20;;;;;;;;;;5553036;22;20031;-63
2023/07/09 02:34:00;;;;;;;13.57;5.80;;;;;;;;;;5005734;28;20073;-63
2023/07/09 02:36:27;;;;;;;12.80;5.60;;;;;;;;;;5023126;28;20103;-65
2023/07/09 02:38:53;;;;;;;11.70;5.40;;;;;;;;;;5024049;28;20054;-66
2023/07/09 02:41:20;;;;;;;11.82;5.43;;;;;;;;;;5032969;28;20082;-66
2023/07/09 02:43:48;;;;;;;10.23;5.38;;;;;;;;;;5021490;28;20061;-66
2023/07/09 02:46:15;;;;;;;10.40;5.35;;;;;;;;;;5016971;28;20049;-66
2023/07/09 02:48:41;;;;;;;12.45;6.47;;;;;;;;;;5022788;28;20057;-66
2023/07/09 02:51:08;;;;;;;13.60;5.47;;;;;;;;;;5024877;28;20045;-66
2023/07/09 02:53:34;;;;;;;11.48;5.90;;;;;;;;;;5025325;28;20112;-66
2023/07/09 02:56:01;;;;;;;12.40;5.70;;;;;;;;;;5003925;28;20053;-65
2023/07/09 02:58:28;;;;;;;11.48;5.65;;;;;;;;;;5020029;28;21980;-66
2023/07/09 03:00:56;;;;;;;12.95;5.78;;;;;;;;;;5021505;28;20041;-65
2023/07/09 03:03:23;;;;;;;11.00;5.32;;;;;;;;;;5039112;28;20049;-66
2023/07/09 03:05:49;;;;;;;17.00;6.40;;;;;;;;;;5018975;28;20107;-65
2023/07/09 03:08:16;;;;;;;13.77;6.15;;;;;;;;;;5017222;28;20119;-66
2023/07/09 03:10:43;;;;;;;13.32;6.03;;;;;;;;;;5021600;28;20053;-66
2023/07/09 03:13:09;;;;;;;15.57;5.70;;;;;;;;;;5012016;28;20373;-65
2023/07/09 03:15:36;;;;;;;11.00;5.60;;;;;;;;;;5012823;28;20057;-65
2023/07/09 03:18:06;;;;;;;14.52;6.22;;;;;;;;;;5016053;28;20056;-66
2023/07/09 03:20:33;;;;;;;13.38;5.88;;;;;;;;;;5018616;28;20049;-68
2023/07/09 03:22:59;;;;;;;13.10;5.57;;;;;;;;;;5018999;28;20140;-65
2023/07/09 03:25:26;;;;;;;10.82;5.60;;;;;;;;;;5020640;28;20055;-66
2023/07/09 03:27:53;;;;;;;13.63;6.00;;;;;;;;;;5023053;28;20053;-66
2023/07/09 03:30:19;;;;;;;14.15;5.97;;;;;;;;;;5016664;28;20076;-65
2023/07/09 03:32:46;;;;;;;12.07;5.65;;;;;;;;;;5027373;28;20077;-66
2023/07/09 03:35:15;;;;;;;12.30;5.40;;;;;;;;;;5022754;28;20054;-66
2023/07/09 03:37:42;;;;;;;14.45;5.80;;;;;;;;;;5028397;28;20116;-65
2023/07/09 03:40:11;;;;;;;13.27;5.95;;;;;;;;;;5027071;28;20061;-65
2023/07/09 03:42:38;;;;;;;11.77;5.63;;;;;;;;;;5021186;28;20084;-64
2023/07/09 03:45:05;;;;;;;10.63;6.00;;;;;;;;;;5004651;28;20061;-64
2023/07/09 03:47:32;;;;;;;15.67;5.77;;;;;;;;;;5011394;28;20045;-64
2023/07/09 03:49:58;;;;;;;11.40;5.57;;;;;;;;;;5010307;28;20136;-64
2023/07/09 03:52:26;;;;;;;13.88;5.53;;;;;;;;;;5029229;28;20053;-63
2023/07/09 03:54:53;;;;;;;11.55;5.15;;;;;;;;;;5016337;28;20076;-64
2023/07/09 03:57:20;;;;;;;13.32;5.93;;;;;;;;;;5037264;28;20123;-63
2023/07/09 03:59:47;;;;;;;11.93;6.03;;;;;;;;;;5038517;28;20053;-63
2023/07/09 04:02:14;;;;;;;14.63;5.88;;;;;;;;;;5035478;28;20125;-64
2023/07/09 04:04:40;;;;;;;11.50;5.38;;;;;;;;;;5021174;28;20068;-64
2023/07/09 04:07:07;;;;;;;15.20;5.78;;;;;;;;;;5045068;28;20080;-64
2023/07/09 04:09:35;;;;;;;12.35;5.55;;;;;;;;;;5053955;28;20055;-64
2023/07/09 04:12:02;;;;;;;14.70;5.88;;;;;;;;;;5058748;28;20365;-64
2023/07/09 04:14:29;;;;;;;12.80;5.73;;;;;;;;;;5016854;28;20068;-64
2023/07/09 04:16:57;;;;;;;15.15;6.40;;;;;;;;;;5043436;28;20111;-64
2023/07/09 04:19:24;;;;;;;12.75;5.70;;;;;;;;;;5044451;28;20059;-63
2023/07/09 04:21:51;;;;;;;16.48;6.80;;;;;;;;;;5027023;28;20080;-66
2023/07/09 04:24:18;;;;;;;13.10;5.78;;;;;;;;;;5037016;28;20072;-64
2023/07/09 04:26:47;;;;;;;13.18;6.30;;;;;;;;;;5046915;28;20087;-64
2023/07/09 04:29:13;;;;;;;;;;;;;;;;;;5025861;28;20053;-64
2023/07/09 04:31:41;;;;;;;12.23;5.50;;;;;;;;;;5045023;28;19935;-64
2023/07/09 04:34:08;;;;;;;11.43;6.10;;;;;;;;;;5038152;28;20082;-65
2023/07/09 04:36:35;;;;;;;16.35;5.82;;;;;;;;;;5040007;28;20045;-64
2023/07/09 04:39:03;;;;;;;13.50;5.95;;;;;;;;;;5044328;28;20057;-64
2023/07/09 04:41:30;;;;;;;12.45;5.88;;;;;;;;;;5029475;28;20057;-64
2023/07/09 04:43:57;;;;;;;15.98;5.85;;;;;;;;;;5018962;28;21524;-63
2023/07/09 04:46:24;;;;;;;15.70;6.30;;;;;;;;;;5016381;28;20105;-65
2023/07/09 04:48:51;;;;;;;12.40;5.90;;;;;;;;;;5022253;28;20142;-64
2023/07/09 04:51:19;;;;;;;12.93;5.78;;;;;;;;;;5024762;28;20053;-64
2023/07/09 04:53:46;;;;;;;12.85;5.45;;;;;;;;;;5019948;28;20123;-63
2023/07/09 04:56:12;;;;;;;15.20;6.22;;;;;;;;;;5021510;28;20057;-64
2023/07/09 04:58:39;;;;;;;11.50;5.60;;;;;;;;;;5039903;28;20049;-64
2023/07/09 05:01:07;;;;;;;12.05;5.97;;;;;;;;;;5026163;28;20080;-64
2023/07/09 05:03:38;;;;;;;13.88;6.43;;;;;;;;;;5042290;28;20057;-64
2023/07/09 05:06:05;;;;;;;13.57;6.20;;;;;;;;;;5020389;28;20045;-65
2023/07/09 05:08:32;;;;;;;13.45;6.72;;;;;;;;;;5020618;28;20967;-64
2023/07/09 05:10:59;;;;;;;13.60;6.65;;;;;;;;;;5063706;28;20078;-64
2023/07/09 05:13:27;;;;;;;12.07;5.70;;;;;;;;;;5028164;28;20121;-65
2023/07/09 05:15:53;;;;;;;13.63;5.93;;;;;;;;;;5039463;28;20104;-64
2023/07/09 05:18:22;;;;;;;12.18;6.13;;;;;;;;;;5031722;28;20103;-64
2023/07/09 05:20:48;;;;;;;;;;;;;;;;;;5023464;28;20119;-65
2023/07/09 05:23:15;;;;;;;17.08;7.05;;;;;;;;;;5022917;28;19928;-64
2023/07/09 05:25:42;;;;;;;16.38;7.03;;;;;;;;;;5016811;28;20126;-64
2023/07/09 05:28:08;;;;;;;15.65;7.05;;;;;;;;;;5017086;28;20049;-65
2023/07/09 05:30:35;;;;;;;17.92;8.65;;;;;;;;;;5021592;28;20050;-64
2023/07/09 05:33:02;;;;;;;19.02;9.77;;;;;;;;;;5021291;28;20132;-65
2023/07/09 05:35:30;;;;;;;23.02;10.75;;;;;;;;;;5034311;28;20432;-65
2023/07/09 05:37:59;;;;;;;24.08;11.02;;;;;;;;;;5021906;28;20049;-64
2023/07/09 05:40:25;;;;;;;19.80;10.07;;;;;;;;;;5021609;28;20076;-64
2023/07/09 05:42:52;;;;;;;22.42;11.23;;;;;;;;;;5024841;28;20076;-66
2023/07/09 05:45:19;;;;;;;25.33;11.18;;;;;;;;;;5020491;28;20136;-65
2023/07/09 05:47:45;;;;;;;22.85;11.50;;;;;;;;;;5041928;28;20057;-65
2023/07/09 05:50:12;;;;;;;24.77;11.00;;;;;;;;;;5017930;28;20111;-65
2023/07/09 05:52:40;;;;;;;24.02;11.23;;;;;;;;;;5040379;28;20057;-65
2023/07/09 05:55:08;;;;;;;30.95;12.68;;;;;;;;;;5036389;28;20045;-65
2023/07/09 05:57:34;;;;;;;31.00;14.90;;;;;;;;;;5040563;28;20145;-65
2023/07/09 06:00:01;;;;;;;25.35;13.02;;;;;;;;;;5042067;28;20127;-64
2023/07/09 06:02:28;;;;;;;44.47;24.65;;;;;;;;;;5036980;28;21908;-65
2023/07/09 06:04:58;;;;;;;30.50;16.25;;;;;;;;;;5012645;28;20049;-65
2023/07/09 06:07:24;;;;;;;19.80;10.45;;;;;;;;;;5014246;28;20080;-65
2023/07/09 06:09:53;;;;;;;20.58;10.00;;;;;;;;;;5024668;28;20147;-64
2023/07/09 06:12:19;;;;;;;;;;;;;;;;;;5023416;28;20172;-65
2023/07/09 06:14:46;;;;;;;21.08;9.27;;;;;;;;;;5018511;28;19924;-65
2023/07/09 06:17:13;;;;;;;29.45;10.80;;;;;;;;;;5033612;28;20157;-65
2023/07/09 06:19:40;;;;;;;19.42;9.52;;;;;;;;;;5014212;28;20053;-64
2023/07/09 06:22:07;;;;;;;22.67;10.43;;;;;;;;;;5002480;28;20045;-65
2023/07/09 06:24:34;;;;;;;19.63;9.10;;;;;;;;;;5013453;28;20064;-64
2023/07/09 06:27:02;;;;;;;19.77;9.48;;;;;;;;;;5005038;28;20061;-65
2023/07/09 06:29:29;;;;;;;;;;;;;;;;;;5020301;28;20148;-64
2023/07/09 06:31:56;;;;;;;18.27;9.15;;;;;;;;;;4997132;28;19925;-64
2023/07/09 06:34:22;;;;;;;26.20;9.43;;;;;;;;;;4971416;28;20043;-63
2023/07/09 06:36:49;;;;;;;19.45;9.00;;;;;;;;;;4981183;28;20058;-64
2023/07/09 06:39:16;;;;;;;21.45;9.07;;;;;;;;;;4982219;28;20058;-64
2023/07/09 06:41:42;;;;;;;18.55;9.23;;;;;;;;;;4984695;28;20053;-64
2023/07/09 06:44:11;;;;;;;27.70;11.73;;;;;;;;;;4969788;28;20081;-65
2023/07/09 06:46:37;;;;;;;25.38;10.80;;;;;;;;;;4982260;28;20050;-64
2023/07/09 06:49:05;;;;;;;26.23;10.50;;;;;;;;;;4980424;28;20062;-64
2023/07/09 06:51:32;;;;;;;17.13;8.40;;;;;;;;;;4986490;28;20090;-65
2023/07/09 06:53:59;;;;;;;15.13;8.27;;;;;;;;;;4979319;28;20058;-65
2023/07/09 06:56:28;;;;;;;19.08;8.77;;;;;;;;;;4974948;28;20109;-64
2023/07/09 06:58:55;;;;;;;20.15;9.02;;;;;;;;;;4993401;28;20062;-64
2023/07/09 07:01:24;;;;;;;16.05;8.85;;;;;;;;;;4992890;28;20129;-64
2023/07/09 07:03:50;;;;;;;17.13;8.43;;;;;;;;;;5003830;28;20053;-64
2023/07/09 07:06:17;;;;;;;16.98;8.77;;;;;;;;;;4980261;28;20172;-67
2023/07/09 07:08:44;;;;;;;17.40;8.68;;;;;;;;;;4981889;28;20089;-64
2023/07/09 07:11:10;;;;;;;18.70;9.10;;;;;;;;;;4982192;28;20077;-64
2023/07/09 07:13:39;;;;;;;20.33;9.27;;;;;;;;;;5002959;28;20081;-64
2023/07/09 07:16:07;;;;;;;19.33;8.38;;;;;;;;;;5006986;28;20129;-65
2023/07/09 07:18:36;;;;;;;18.98;8.68;;;;;;;;;;4981639;28;20201;-64
2023/07/09 07:21:03;;;;;;;20.08;9.35;;;;;;;;;;4984225;28;20123;-64
2023/07/09 07:23:30;;;;;;;16.58;7.93;;;;;;;;;;4982007;28;20053;-64
2023/07/09 07:25:57;;;;;;;18.00;8.30;;;;;;;;;;4979606;28;20089;-64
2023/07/09 07:28:24;;;;;;;17.80;7.30;;;;;;;;;;5007747;28;20148;-65
2023/07/09 07:30:59;;;;;;;17.52;6.90;;;;;;;;;;4984700;28;20054;-64
2023/07/09 07:33:26;;;;;;;21.15;8.00;;;;;;;;;;4996301;28;20073;-64
2023/07/09 07:35:54;;;;;;;14.07;7.28;;;;;;;;;;4993224;28;20045;-64
2023/07/09 07:38:21;;;;;;;14.18;7.18;;;;;;;;;;5010677;28;20057;-64
2023/07/09 07:40:47;;;;;;;13.90;7.00;;;;;;;;;;4999318;28;20132;-64
2023/07/09 07:43:14;;;;;;;15.38;7.22;;;;;;;;;;5017607;28;20081;-64
2023/07/09 07:45:41;;;;;;;16.38;7.75;;;;;;;;;;5010908;28;20139;-64
2023/07/09 07:48:08;;;;;;;16.05;6.85;;;;;;;;;;5013773;28;20057;-65
2023/07/09 07:50:35;;;;;;;15.35;7.28;;;;;;;;;;5017588;28;20158;-68
2023/07/09 07:53:03;;;;;;;13.60;7.17;;;;;;;;;;4996824;28;20119;-64
2023/07/09 07:55:30;;;;;;;18.73;7.25;;;;;;;;;;5008705;28;20150;-64
2023/07/09 07:57:57;;;;;;;18.30;7.05;;;;;;;;;;5032597;28;20073;-63
2023/07/09 08:00:24;;;;;;;19.45;8.52;;;;;;;;;;5008261;28;20063;-64
2023/07/09 08:02:51;;;;;;;17.98;7.50;;;;;;;;;;5018408;28;20057;-64
2023/07/09 08:05:18;;;;;;;18.58;7.28;;;;;;;;;;5011720;28;20045;-64
2023/07/09 08:07:45;;;;;;;22.98;6.85;;;;;;;;;;5014915;28;20162;-64
2023/07/09 08:10:15;;;;;;;16.27;7.82;;;;;;;;;;5014291;28;20069;-64
2023/07/09 08:12:42;;;;;;;16.85;8.25;;;;;;;;;;5017445;28;20065;-64
2023/07/09 08:15:10;;;;;;;19.42;9.57;;;;;;;;;;5009698;28;20139;-65
2023/07/09 08:17:39;;;;;;;23.65;10.02;;;;;;;;;;5000090;28;20058;-64
2023/07/09 08:20:09;;;;;;;12.32;6.80;;;;;;;;;;5015440;28;20100;-65
2023/07/09 08:22:36;;;;;;;18.80;6.90;;;;;;;;;;5020553;28;20114;-64
2023/07/09 08:25:05;;;;;;;14.18;7.35;;;;;;;;;;5015691;28;20141;-65
2023/07/09 08:27:34;;;;;;;16.13;6.28;;;;;;;;;;5020563;28;20065;-65
2023/07/09 08:30:02;;;;;;;14.65;6.95;;;;;;;;;;5021023;28;20057;-64
2023/07/09 08:32:30;;;;;;;14.27;6.38;;;;;;;;;;5025300;28;20125;-64
2023/07/09 08:34:58;;;;;;;19.05;7.43;;;;;;;;;;5016784;28;20053;-64
2023/07/09 08:37:25;;;;;;;18.23;8.75;;;;;;;;;;5022980;28;20076;-65
2023/07/09 08:39:52;;;;;;;41.90;24.77;;;;;;;;;;5022435;28;20068;-65
2023/07/09 08:42:25;;;;;;;18.23;7.80;;;;;;;;;;5016493;28;20049;-65
2023/07/09 08:45:16;;;;;;;20.00;6.18;;;;;;;;;;5017668;28;20052;-65
2023/07/09 08:47:51;;;;;;;15.82;6.88;;;;;;;;;;5024883;28;20080;-65
2023/07/09 08:50:19;;;;;;;15.25;6.35;;;;;;;;;;5008121;28;20310;-65
2023/07/09 08:52:51;;;;;;;20.15;10.18;;;;;;;;;;5022281;28;20057;-67
2023/07/09 08:55:20;;;;;;;19.85;7.28;;;;;;;;;;5017883;28;20207;-65
2023/07/09 08:57:50;;;;;;;14.70;6.88;;;;;;;;;;5010479;28;20075;-64
2023/07/09 09:00:30;;;;;;;16.40;6.28;;;;;;;;;;4996985;28;20088;-66
2023/07/09 09:03:00;;;;;;;14.65;6.53;;;;;;;;;;5002225;28;20080;-65
2023/07/09 09:05:27;;;;;;;12.52;6.43;;;;;;;;;;5033508;28;20113;-65
2023/07/09 09:07:58;;;;;;;15.05;6.18;;;;;;;;;;5033277;28;20053;-67
2023/07/09 09:10:31;;;;;;;12.43;6.43;;;;;;;;;;5003965;28;20052;-67
2023/07/09 09:13:06;;;;;;;16.35;6.43;;;;;;;;;;5039891;28;20067;-67
2023/07/09 09:15:35;;;;;;;17.77;8.98;;;;;;;;;;5035548;28;20132;-65
2023/07/09 09:18:20;;;;;;;18.25;6.53;;;;;;;;;;5044516;28;20056;-64
2023/07/09 09:20:54;;;;;;;13.88;5.68;;;;;;;;;;5020211;28;20076;-66
2023/07/09 09:23:23;;;;;;;14.88;6.20;;;;;;;;;;5029804;28;20072;-66
2023/07/09 09:25:58;;;;;;;23.95;6.78;;;;;;;;;;4959587;28;20053;-66
2023/07/09 09:28:40;;;;;;;14.82;6.05;;;;;;;;;;5028023;28;20089;-66
2023/07/09 09:31:24;;;;;;;18.65;5.65;;;;;;;;;;5022186;28;20095;-66
2023/07/09 09:33:53;;;;;;;19.33;5.78;;;;;;;;;;5018844;28;20057;-66
2023/07/09 09:36:29;;;;;;;13.23;6.50;;;;;;;;;;4995904;28;20053;-66
2023/07/09 09:38:59;;;;;;;16.48;5.65;;;;;;;;;;5021378;28;20059;-66
2023/07/09 09:41:42;;;;;;;11.88;4.90;;;;;;;;;;5023071;28;20060;-66
2023/07/09 09:44:30;;;;;;;;;;;;;;;;;;;;;
2023/07/09 09:47:04;;;;;;;10.82;5.10;;;;;;;;;;5022844;28;20053;-65
2023/07/09 09:49:31;;;;;;;15.07;5.32;;;;;;;;;;5021640;28;20064;-66
2023/07/09 09:52:15;;;;;;;13.48;5.30;;;;;;;;;;5036788;28;20060;-64
2023/07/09 09:55:05;;;;;;;10.35;4.88;;;;;;;;;;4973280;28;20053;-65
2023/07/09 09:57:32;;;;;;;10.20;4.78;;;;;;;;;;5035810;28;20055;-65
2023/07/09 09:59:59;;;;;;;15.20;7.85;;;;;;;;;;5035884;28;20056;-65
2023/07/09 10:02:27;;;;;;;15.07;4.80;;;;;;;;;;5031935;28;20053;-66
2023/07/09 10:04:54;;;;;;;18.23;10.93;;;;;;;;;;5026538;28;20081;-66
2023/07/09 10:08:56;;;;;;;16.70;8.88;;;;;;;;;;5067655;28;20146;-69
2023/07/09 10:11:32;;;;;;;13.18;5.63;;;;;;;;;;5056296;28;20063;-67
2023/07/09 10:14:06;;;;;;;9.73;5.22;;;;;;;;;;5049178;28;20058;-68
2023/07/09 10:16:36;;;;;;;13.10;5.18;;;;;;;;;;4997487;28;20149;-70
2023/07/09 10:19:13;;;;;;;10.00;4.97;;;;;;;;;;4999816;28;20049;-67
2023/07/09 10:21:44;;;;;;;10.00;4.70;;;;;;;;;;4997790;28;20058;-68
2023/07/09 10:24:33;;;;;;;14.88;4.32;;;;;;;;;;4976340;28;20059;-68
2023/07/09 10:27:04;;;;;;;11.75;3.88;;;;;;;;;;4977370;28;20050;-69
2023/07/09 10:29:41;;;;;;;10.93;3.70;;;;;;;;;;5014787;28;20065;-69
2023/07/09 10:32:16;;;;;;;11.40;4.28;;;;;;;;;;5013652;28;20085;-69
2023/07/09 10:34:51;;;;;;;10.93;4.35;;;;;;;;;;5010788;28;20069;-69
2023/07/09 10:37:41;;;;;;;9.20;4.38;;;;;;;;;;5017899;28;20147;-69
2023/07/09 10:40:17;;;;;;;10.02;4.20;;;;;;;;;;5015229;28;20079;-69
2023/07/09 10:42:48;;;;;;;11.30;4.10;;;;;;;;;;5018028;28;20169;-70
2023/07/09 10:45:18;;;;;;;7.90;4.03;;;;;;;;;;4952026;28;20060;-68
2023/07/09 10:47:47;;;;;;;9.93;4.28;;;;;;;;;;4969712;28;20119;-70
2023/07/09 10:50:19;;;;;;;13.15;4.43;;;;;;;;;;4991097;28;20058;-68
2023/07/09 10:52:49;;;;;;;10.52;4.03;;;;;;;;;;5013842;28;20084;-68
2023/07/09 10:55:22;;;;;;;14.60;6.55;;;;;;;;;;4993292;28;20099;-69
2023/07/09 10:57:53;;;;;;;15.82;9.13;;;;;;;;;;5015121;28;20054;-69
2023/07/09 11:00:23;;;;;;;20.35;9.60;;;;;;;;;;5012537;28;20059;-67
2023/07/09 11:02:57;;;;;;;14.35;5.10;;;;;;;;;;5018815;28;20053;-70
2023/07/09 11:05:24;;;;;;;8.40;3.67;;;;;;;;;;4983211;28;20140;-69
2023/07/09 11:08:00;;;;;;;8.90;3.40;;;;;;;;;;5010245;28;20063;-70
2023/07/09 11:10:31;;;;;;;7.45;3.30;;;;;;;;;;5007862;28;20057;-71
2023/07/09 11:13:01;;;;;;;10.05;3.88;;;;;;;;;;5009279;28;20235;-68
2023/07/09 11:15:34;;;;;;;8.65;3.25;;;;;;;;;;5010474;28;20064;-69
2023/07/09 11:18:02;;;;;;;10.55;4.63;;;;;;;;;;5013479;28;20042;-68
2023/07/09 11:20:34;;;;;;;10.57;4.82;;;;;;;;;;5000406;28;20061;-69
2023/07/09 11:23:04;;;;;;;7.47;3.88;;;;;;;;;;5002975;28;20111;-70
2023/07/09 11:25:42;;;;;;;9.18;3.50;;;;;;;;;;4997828;28;20164;-68
2023/07/09 11:28:10;;;;;;;10.75;3.38;;;;;;;;;;4958827;28;20065;-69
2023/07/09 11:30:46;;;;;;;;;;;;;;;;;;5002759;28;20120;-72
2023/07/09 11:33:18;;;;;;;7.97;3.17;;;;;;;;;;5001429;28;19925;-70
2023/07/09 11:35:48;;;;;;;8.73;4.00;;;;;;;;;;4997923;28;20050;-68
2023/07/09 11:38:19;;;;;;;6.57;3.55;;;;;;;;;;5003091;28;20129;-69
2023/07/09 11:40:53;;;;;;;10.05;3.90;;;;;;;;;;5003147;28;20058;-68
2023/07/09 11:43:28;;;;;;;18.05;3.58;;;;;;;;;;5003014;28;20061;-67
2023/07/09 11:45:56;;;;;;;7.55;3.80;;;;;;;;;;4991924;28;20108;-67
2023/07/09 11:48:26;;;;;;;9.85;3.80;;;;;;;;;;4996883;28;20148;-69
2023/07/09 11:50:54;;;;;;;13.02;4.30;;;;;;;;;;5007078;28;20045;-68
2023/07/09 11:53:29;;;;;;;8.60;3.65;;;;;;;;;;5003551;28;20085;-70
2023/07/09 11:55:58;;;;;;;7.40;3.72;;;;;;;;;;4998829;28;20050;-67
2023/07/09 11:58:24;;;;;;;9.05;3.67;;;;;;;;;;4995122;28;20105;-68
2023/07/09 12:00:54;;;;;;;9.40;3.90;;;;;;;;;;5001529;28;20053;-69
2023/07/09 12:03:23;;;;;;;5.53;3.08;;;;;;;;;;5003461;28;20136;-69
2023/07/09 12:05:52;;;;;;;12.25;3.78;;;;;;;;;;4961610;28;20049;-66
2023/07/09 12:08:19;;;;;;;11.23;3.95;;;;;;;;;;4979591;28;20069;-68
2023/07/09 12:10:46;;;;;;;9.15;3.72;;;;;;;;;;4983708;28;20050;-68
2023/07/09 12:13:15;;;;;;;8.75;3.75;;;;;;;;;;4981534;28;20374;-67
2023/07/09 12:15:42;;;;;;;10.27;3.70;;;;;;;;;;4955499;28;20056;-68
2023/07/09 12:18:13;;;;;;;9.15;3.33;;;;;;;;;;4999688;28;20066;-68
2023/07/09 12:20:41;;;;;;;12.02;4.50;;;;;;;;;;5003425;28;20061;-70
2023/07/09 12:23:12;;;;;;;14.80;5.82;;;;;;;;;;5001795;28;20076;-67
2023/07/09 12:25:47;;;;;;;8.85;3.63;;;;;;;;;;4959572;28;20480;-67
2023/07/09 12:28:17;;;;;;;8.82;3.80;;;;;;;;;;4976553;28;20113;-66
2023/07/09 12:30:46;;;;;;;11.70;3.55;;;;;;;;;;4980148;28;20054;-66
2023/07/09 12:33:17;;;;;;;14.70;4.68;;;;;;;;;;4982718;28;20124;-66
2023/07/09 12:35:44;;;;;;;11.90;4.13;;;;;;;;;;4962868;28;20058;-68
2023/07/09 12:38:18;;;;;;;9.32;4.13;;;;;;;;;;5012181;28;20073;-65
2023/07/09 12:40:45;;;;;;;10.43;4.13;;;;;;;;;;4980717;28;20058;-67
2023/07/09 12:43:12;;;;;;;9.33;3.90;;;;;;;;;;4983831;28;20058;-67
2023/07/09 12:45:41;;;;;;;10.52;4.13;;;;;;;;;;4977231;28;20056;-68
2023/07/09 12:48:12;;;;;;;8.93;4.18;;;;;;;;;;4982510;28;20269;-68
2023/07/09 12:50:39;;;;;;;16.25;4.40;;;;;;;;;;4979897;28;20093;-68
2023/07/09 12:53:14;;;;;;;16.05;6.20;;;;;;;;;;4980381;28;20080;-66
2023/07/09 12:55:43;;;;;;;20.90;10.82;;;;;;;;;;4968846;28;20058;-69
2023/07/09 12:58:11;;;;;;;10.98;5.75;;;;;;;;;;4974734;28;20124;-69
2023/07/09 13:00:40;;;;;;;11.02;5.60;;;;;;;;;;4981872;28;20138;-67
2023/07/09 13:03:14;;;;;;;11.50;5.82;;;;;;;;;;4981802;28;20068;-69
2023/07/09 13:05:52;;;;;;;13.35;4.68;;;;;;;;;;4992242;28;20074;-69
2023/07/09 13:08:21;;;;;;;10.35;3.80;;;;;;;;;;4995988;28;20049;-68
2023/07/09 13:10:51;;;;;;;13.43;4.03;;;;;;;;;;4982903;28;20084;-66
2023/07/09 13:13:20;;;;;;;9.70;4.65;;;;;;;;;;4987712;28;20050;-65
2023/07/09 13:15:56;;;;;;;14.68;4.40;;;;;;;;;;4984237;28;20072;-69
2023/07/09 13:18:23;;;;;;;10.80;4.43;;;;;;;;;;4984402;28;20267;-66
2023/07/09 13:20:50;;;;;;;9.40;4.20;;;;;;;;;;5000466;28;20073;-67
2023/07/09 13:23:20;;;;;;;8.33;3.90;;;;;;;;;;5002758;28;20057;-68
2023/07/09 13:25:47;;;;;;;9.98;4.47;;;;;;;;;;4993206;28;20100;-67
2023/07/09 13:28:19;;;;;;;11.55;4.38;;;;;;;;;;4974382;28;20073;-67
2023/07/09 13:30:46;;;;;;;13.07;4.45;;;;;;;;;;4983341;28;20064;-69
2023/07/09 13:33:15;;;;;;;11.93;5.28;;;;;;;;;;4980777;28;20066;-69
2023/07/09 13:35:43;;;;;;;11.07;5.45;;;;;;;;;;4967410;28;20248;-68
2023/07/09 13:38:14;;;;;;;12.77;5.43;;;;;;;;;;4982669;28;20176;-68
2023/07/09 13:40:41;;;;;;;13.30;4.88;;;;;;;;;;4980959;28;20069;-68
2023/07/09 13:43:13;;;;;;;14.63;4.88;;;;;;;;;;4983036;28;20058;-68
2023/07/09 13:45:40;;;;;;;9.30;3.97;;;;;;;;;;4956819;28;20229;-68
2023/07/09 13:48:15;;;;;;;11.85;5.68;;;;;;;;;;4980602;28;20117;-71
2023/07/09 13:50:43;;;;;;;12.35;5.97;;;;;;;;;;4979185;28;20062;-68
2023/07/09 13:53:16;;;;;;;10.20;4.38;;;;;;;;;;4982791;28;20092;-67
2023/07/09 13:55:49;;;;;;;8.55;4.07;;;;;;;;;;4994404;28;20137;-71
2023/07/09 13:58:18;;;;;;;11.60;3.85;;;;;;;;;;4995381;28;20146;-68
2023/07/09 14:00:47;;;;;;;8.20;3.50;;;;;;;;;;4999429;28;20130;-67
2023/07/09 14:03:21;;;;;;;8.45;3.05;;;;;;;;;;5001744;28;20133;-68
2023/07/09 14:05:50;;;;;;;6.30;3.13;;;;;;;;;;4996071;28;20057;-72
2023/07/09 14:08:19;;;;;;;8.88;4.05;;;;;;;;;;4986802;28;20058;-71
2023/07/09 14:10:46;;;;;;;7.93;3.90;;;;;;;;;;4991412;28;20050;-72
2023/07/09 14:13:15;;;;;;;8.50;4.38;;;;;;;;;;5007833;28;20112;-70
2023/07/09 14:15:42;;;;;;;10.15;4.90;;;;;;;;;;4997235;28;20054;-68
2023/07/09 14:18:12;;;;;;;7.77;4.60;;;;;;;;;;4999947;28;20107;-70
2023/07/09 14:20:40;;;;;;;11.32;4.63;;;;;;;;;;5006452;28;20054;-70
2023/07/09 14:23:09;;;;;;;8.88;4.63;;;;;;;;;;5002577;28;20054;-70
2023/07/09 14:25:36;;;;;;;9.05;4.78;;;;;;;;;;4952230;28;20188;-71
2023/07/09 14:28:08;;;;;;;11.55;4.75;;;;;;;;;;5004016;28;20089;-72
2023/07/09 14:30:35;;;;;;;11.63;4.95;;;;;;;;;;4985101;28;21056;-67
2023/07/09 14:33:05;;;;;;;8.60;4.00;;;;;;;;;;5001948;28;20089;-68
2023/07/09 14:35:35;;;;;;;11.57;4.20;;;;;;;;;;4983815;28;20137;-73
2023/07/09 14:38:07;;;;;;;10.30;4.82;;;;;;;;;;5001594;28;20120;-70
2023/07/09 14:40:34;;;;;;;12.60;3.97;;;;;;;;;;5004816;28;20050;-69
2023/07/09 14:43:02;;;;;;;8.30;4.22;;;;;;;;;;4997437;28;20134;-70
2023/07/09 14:45:33;;;;;;;9.93;4.45;;;;;;;;;;4973582;28;20058;-72
2023/07/09 14:47:59;;;;;;;10.15;2.75;;;;;;;;;;4993470;28;20115;-69